Time;durP1;ratioP1;P1;durP2;ratioP2;P2;SDS_P1;SDS_P2;PMS_P1;PMS_P2;Temp;Humidity;BMP_temperature;BMP_pressure;BME280_temperature;BME280_humidity;BME280_pressure;Samples;Min_cycle;Max_cycle;Signal;HPM_P1;HPM_P2
2022/11/22 00:02:04;;;;;;;4.75;3.80;;;;;;;4.33;75.45;94277.13;5098346;28;20028;-69
2022/11/22 00:04:30;;;;;;;5.03;3.85;;;;;;;4.25;75.45;94272.47;5110419;28;20035;-70
2022/11/22 00:06:55;;;;;;;4.80;3.85;;;;;;;4.20;75.20;94275.34;5108976;27;20035;-70
2022/11/22 00:09:21;;;;;;;4.05;3.25;;;;;;;4.18;75.24;94278.94;5090244;28;20031;-69
2022/11/22 00:11:46;;;;;;;4.15;3.45;;;;;;;4.03;76.34;94278.22;5112904;27;20071;-69
2022/11/22 00:14:12;;;;;;;4.45;3.35;;;;;;;3.93;75.98;94262.59;5108252;28;20053;-69
2022/11/22 00:16:37;;;;;;;3.88;3.05;;;;;;;4.07;75.52;94271.97;5090031;28;20020;-69
2022/11/22 00:19:02;;;;;;;4.05;3.10;;;;;;;4.18;75.11;94266.09;5084592;28;20028;-69
2022/11/22 00:21:28;;;;;;;4.97;2.97;;;;;;;4.25;75.31;94278.44;5101385;27;20058;-69
2022/11/22 00:23:57;;;;;;;5.28;3.28;;;;;;;4.26;74.92;94279.25;5103118;28;20062;-69
2022/11/22 00:26:23;;;;;;;4.63;3.42;;;;;;;4.27;75.19;94283.50;5105371;27;20083;-69
2022/11/22 00:28:49;;;;;;;3.80;2.90;;;;;;;4.31;75.03;94290.06;5102742;28;20055;-70
2022/11/22 00:31:14;;;;;;;3.97;3.10;;;;;;;4.33;75.04;94293.38;5094322;27;20077;-70
2022/11/22 00:33:42;;;;;;;3.85;2.97;;;;;;;4.25;75.08;94287.91;5109752;27;20032;-70
2022/11/22 00:36:08;;;;;;;4.13;3.60;;;;;;;4.09;75.26;94274.41;5109123;27;20043;-69
2022/11/22 00:38:33;;;;;;;4.32;3.50;;;;;;;4.17;75.27;94277.31;5102728;27;20111;-69
2022/11/22 00:40:59;;;;;;;3.70;3.08;;;;;;;4.17;75.41;94287.59;5087460;27;20043;-70
2022/11/22 00:43:24;;;;;;;3.75;3.17;;;;;;;3.99;76.12;94281.94;5105962;28;20023;-70
2022/11/22 00:45:50;;;;;;;3.97;3.05;;;;;;;3.91;75.92;94287.56;5112458;27;20039;-70
2022/11/22 00:48:15;;;;;;;4.00;3.28;;;;;;;3.70;75.94;94264.06;5105424;27;20036;-69
2022/11/22 00:50:41;;;;;;;4.90;3.58;;;;;;;3.72;75.82;94269.13;5106250;27;20035;-69
2022/11/22 00:53:06;;;;;;;5.28;3.42;;;;;;;3.75;75.44;94284.31;5104702;27;20027;-70
2022/11/22 00:55:32;;;;;;;4.93;3.05;;;;;;;3.74;75.36;94292.97;5107927;27;20500;-70
2022/11/22 00:57:57;;;;;;;4.32;3.33;;;;;;;3.76;75.65;94288.53;5102842;27;20042;-69
2022/11/22 01:00:22;;;;;;;4.25;3.25;;;;;;;3.73;75.33;94278.47;5102199;27;20031;-69
2022/11/22 01:02:48;;;;;;;4.72;3.33;;;;;;;3.72;75.41;94284.53;5090337;28;20043;-69
2022/11/22 01:05:13;;;;;;;4.18;3.05;;;;;;;3.64;75.43;94290.16;5105252;27;20663;-69
2022/11/22 01:07:39;;;;;;;4.95;3.33;;;;;;;3.66;75.42;94277.22;5108010;27;20016;-69
2022/11/22 01:10:05;;;;;;;4.93;3.40;;;;;;;3.69;75.74;94282.16;5102628;28;20100;-69
2022/11/22 01:12:30;;;;;;;5.72;4.32;;;;;;;3.65;75.68;94283.25;5109261;27;20052;-69
2022/11/22 01:14:56;;;;;;;9.65;4.97;;;;;;;3.75;75.56;94282.56;5104261;28;20023;-69
2022/11/22 01:17:21;;;;;;;9.02;5.47;;;;;;;3.45;75.64;94253.72;5106118;27;20093;-70
2022/11/22 01:19:47;;;;;;;5.07;4.05;;;;;;;3.38;75.76;94271.28;5083051;28;20436;-69
2022/11/22 01:22:12;;;;;;;5.90;4.43;;;;;;;3.28;75.73;94275.34;5102863;28;20028;-69
2022/11/22 01:24:38;;;;;;;8.85;5.22;;;;;;;3.25;75.90;94273.78;5080551;28;20425;-70
2022/11/22 01:27:03;;;;;;;6.25;4.90;;;;;;;3.42;75.80;94277.03;5094119;28;20027;-69
2022/11/22 01:29:29;;;;;;;6.28;5.25;;;;;;;3.45;75.36;94274.25;5085499;28;20050;-69
2022/11/22 01:31:54;;;;;;;4.97;4.03;;;;;;;3.46;75.45;94274.19;5106410;28;20039;-69
2022/11/22 01:34:19;;;;;;;5.10;3.58;;;;;;;3.42;75.93;94274.47;5105886;28;20016;-69
2022/11/22 01:36:45;;;;;;;3.97;3.25;;;;;;;3.34;75.77;94274.94;5103061;28;20020;-69
2022/11/22 01:39:10;;;;;;;4.10;3.28;;;;;;;3.29;75.71;94269.28;5086888;28;20059;-69
2022/11/22 01:41:36;;;;;;;3.80;3.03;;;;;;;3.25;75.62;94273.78;5091289;28;20517;-69
2022/11/22 01:44:21;;;;;;;5.53;3.50;;;;;;;3.19;75.77;94278.47;5097422;28;20421;-69
2022/11/22 01:46:48;;;;;;;5.07;3.08;;;;;;;2.97;75.92;94256.72;5089320;28;20039;-69
2022/11/22 01:49:22;;;;;;;4.78;3.45;;;;;;;3.06;76.00;94275.84;5088595;28;20016;-69
2022/11/22 01:51:48;;;;;;;4.20;3.20;;;;;;;2.84;76.26;94263.50;5084009;28;20035;-69
2022/11/22 01:54:18;;;;;;;4.47;3.53;;;;;;;2.75;76.14;94228.16;5108392;28;20115;-69
2022/11/22 01:56:52;;;;;;;5.00;3.40;;;;;;;3.08;75.62;94271.44;5071804;28;20509;-69
2022/11/22 01:59:19;;;;;;;5.05;3.70;;;;;;;3.05;75.58;94269.88;5091526;28;20035;-69
2022/11/22 02:01:44;;;;;;;4.47;3.42;;;;;;;3.01;75.91;94249.63;5103674;28;20410;-69
2022/11/22 02:04:11;;;;;;;4.70;3.30;;;;;;;3.10;75.23;94265.31;5075212;28;20020;-69
2022/11/22 02:06:41;;;;;;;4.68;3.40;;;;;;;3.09;75.40;94279.06;5075324;28;20028;-69
2022/11/22 02:09:10;;;;;;;4.20;3.17;;;;;;;3.07;75.70;94275.75;5075967;28;20103;-69
2022/11/22 02:11:37;;;;;;;5.15;3.83;;;;;;;3.07;75.75;94274.94;5075499;28;20139;-69
2022/11/22 02:14:02;;;;;;;4.07;3.08;;;;;;;2.97;76.03;94282.38;5100653;28;20030;-69
2022/11/22 02:16:27;;;;;;;5.18;3.83;;;;;;;2.86;75.66;94282.19;5095589;28;20027;-69
2022/11/22 02:18:53;;;;;;;5.88;4.45;;;;;;;2.80;76.01;94268.00;5095277;28;20481;-69
2022/11/22 02:21:18;;;;;;;5.50;4.28;;;;;;;2.86;75.49;94267.63;5112702;28;20595;-69
2022/11/22 02:24:05;;;;;;;4.63;3.63;;;;;;;2.94;75.41;94274.88;5095560;28;20413;-69
2022/11/22 02:26:30;;;;;;;4.10;3.50;;;;;;;2.92;75.11;94274.13;5097646;28;20048;-69
2022/11/22 02:28:59;;;;;;;4.35;3.72;;;;;;;2.81;75.73;94273.97;5095155;28;20551;-69
2022/11/22 02:31:36;;;;;;;4.53;3.33;;;;;;;2.86;75.38;94267.63;5095471;28;20035;-69
2022/11/22 02:34:01;;;;;;;5.07;3.80;;;;;;;2.87;75.61;94273.56;5095234;28;20489;-69
2022/11/22 02:36:26;;;;;;;7.32;3.72;;;;;;;2.82;75.74;94271.31;5113853;28;20032;-69
2022/11/22 02:38:52;;;;;;;5.80;4.53;;;;;;;2.83;75.33;94277.25;5111882;28;20096;-69
2022/11/22 02:41:17;;;;;;;9.30;5.13;;;;;;;2.89;75.54;94287.16;5095327;28;20047;-69
2022/11/22 02:43:44;;;;;;;7.38;4.22;;;;;;;2.78;75.15;94266.44;5111889;28;20027;-69
2022/11/22 02:46:11;;;;;;;5.25;3.42;;;;;;;2.75;75.54;94270.03;5095139;28;20059;-69
2022/11/22 02:48:43;;;;;;;4.75;3.47;;;;;;;2.73;76.14;94268.47;5095215;28;20053;-69
2022/11/22 02:51:09;;;;;;;4.30;3.13;;;;;;;2.61;75.65;94258.03;5083448;28;20024;-69
2022/11/22 02:53:34;;;;;;;4.40;3.22;;;;;;;2.57;75.81;94248.91;5074533;28;20036;-69
2022/11/22 02:56:00;;;;;;;4.07;3.05;;;;;;;2.65;75.23;94236.44;5092915;28;20028;-69
2022/11/22 02:58:25;;;;;;;4.00;2.92;;;;;;;2.68;75.25;94240.56;5074297;28;20028;-69
2022/11/22 03:00:51;;;;;;;4.78;3.20;;;;;;;2.53;75.54;94249.97;5091372;28;20032;-69
2022/11/22 03:03:16;;;;;;;3.42;2.75;;;;;;;2.63;75.73;94256.22;5092330;28;20073;-69
2022/11/22 03:05:41;;;;;;;3.72;2.72;;;;;;;2.59;75.47;94259.91;5092669;28;20046;-69
2022/11/22 03:08:07;;;;;;;7.03;4.05;;;;;;;2.52;75.52;94256.03;5092211;28;20032;-69
2022/11/22 03:10:32;;;;;;;21.00;9.38;;;;;;;2.41;75.49;94246.41;5091031;28;20036;-69
2022/11/22 03:12:58;;;;;;;27.15;11.82;;;;;;;2.52;75.44;94265.47;5092175;28;20027;-69
2022/11/22 03:15:24;;;;;;;15.40;7.35;;;;;;;2.48;75.88;94264.84;5091023;28;20556;-69
2022/11/22 03:17:58;;;;;;;5.72;4.07;;;;;;;2.54;76.46;94249.09;5092158;28;20511;-69
2022/11/22 03:20:23;;;;;;;4.50;3.08;;;;;;;2.59;76.37;94259.03;5091042;28;20062;-69
2022/11/22 03:22:48;;;;;;;4.75;3.25;;;;;;;2.61;75.73;94254.66;5092336;28;20024;-69
2022/11/22 03:25:14;;;;;;;4.28;3.03;;;;;;;2.60;75.65;94253.84;5090722;28;20032;-69
2022/11/22 03:27:40;;;;;;;4.53;3.30;;;;;;;2.51;75.81;94246.72;5090818;28;20094;-69
2022/11/22 03:30:06;;;;;;;5.47;3.88;;;;;;;2.47;75.52;94237.53;5073939;28;20060;-69
2022/11/22 03:32:31;;;;;;;4.47;3.22;;;;;;;2.33;76.10;94250.38;5092157;28;20024;-69
2022/11/22 03:34:57;;;;;;;4.68;3.30;;;;;;;2.35;75.42;94243.41;5091638;28;20032;-69
2022/11/22 03:37:22;;;;;;;4.25;3.28;;;;;;;2.22;75.63;94244.13;5081242;28;20042;-69
2022/11/22 03:39:48;;;;;;;4.68;3.17;;;;;;;2.18;76.42;94250.34;5077836;28;20448;-69
2022/11/22 03:42:13;;;;;;;4.70;3.03;;;;;;;2.33;76.10;94248.63;5090472;28;20426;-69
2022/11/22 03:44:39;;;;;;;4.15;3.25;;;;;;;2.23;75.87;94248.34;5074429;28;20027;-69
2022/11/22 03:47:04;;;;;;;4.60;3.20;;;;;;;2.26;76.57;94238.81;5101706;28;20510;-69
2022/11/22 03:49:29;;;;;;;4.22;3.28;;;;;;;2.22;76.56;94249.25;5091487;28;20390;-69
2022/11/22 03:51:55;;;;;;;4.22;3.30;;;;;;;2.20;76.74;94253.66;5087302;28;20321;-69
2022/11/22 03:54:20;;;;;;;4.80;3.05;;;;;;;2.32;75.69;94256.41;5093454;28;20027;-69
2022/11/22 03:56:46;;;;;;;4.05;3.08;;;;;;;2.20;75.75;94232.31;5093688;28;20031;-69
2022/11/22 03:59:11;;;;;;;4.47;2.88;;;;;;;2.41;75.35;94255.84;5108878;28;20031;-69
2022/11/22 04:01:37;;;;;;;3.83;2.90;;;;;;;2.33;75.05;94263.19;5108799;28;20043;-69
2022/11/22 04:04:02;;;;;;;4.53;3.38;;;;;;;2.10;75.67;94264.53;5091613;28;20062;-69
2022/11/22 04:06:28;;;;;;;6.93;5.65;;;;;;;2.08;76.16;94264.63;5111345;28;20038;-69
2022/11/22 04:08:53;;;;;;;5.00;4.15;;;;;;;2.11;75.94;94274.69;5109543;28;20208;-69
2022/11/22 04:11:18;;;;;;;4.40;3.28;;;;;;;2.15;76.08;94272.78;5109922;28;20067;-69
2022/11/22 04:16:28;;;;;;;4.30;2.80;;;;;;;2.13;75.89;94278.00;5099444;28;20096;-69
2022/11/22 04:18:53;;;;;;;3.83;2.65;;;;;;;2.20;75.23;94278.44;5109372;28;20024;-69
2022/11/22 04:21:34;;;;;;;3.88;3.00;;;;;;;2.22;75.43;94280.00;5091668;28;20036;-69
2022/11/22 04:26:49;;;;;;;4.57;3.47;;;;;;;2.14;75.81;94295.00;5089452;28;20088;-69
2022/11/22 04:29:15;;;;;;;4.25;3.08;;;;;;;2.08;76.06;94280.00;5091927;28;20031;-69
2022/11/22 04:34:25;;;;;;;3.92;3.00;;;;;;;2.12;75.73;94290.91;5094766;28;20173;-69
2022/11/22 04:36:50;;;;;;;5.70;4.47;;;;;;;1.92;76.23;94286.91;5109558;28;20400;-69
2022/11/22 04:39:16;;;;;;;5.03;3.90;;;;;;;1.95;75.94;94289.28;5097602;28;20166;-70
2022/11/22 04:41:41;;;;;;;7.55;6.22;;;;;;;1.98;75.86;94299.38;5099400;28;20043;-70
2022/11/22 04:46:52;;;;;;;4.70;3.17;;;;;;;1.94;76.17;94305.59;5101734;28;20089;-69
2022/11/22 04:49:17;;;;;;;3.92;3.10;;;;;;;2.04;75.58;94305.91;5089110;28;20020;-70
2022/11/22 04:54:27;;;;;;;5.05;3.30;;;;;;;1.96;75.92;94317.41;5110649;28;20030;-69
2022/11/22 04:56:52;;;;;;;4.68;2.80;;;;;;;1.92;76.42;94310.81;5092818;28;20035;-70
2022/11/22 04:59:18;;;;;;;4.05;3.40;;;;;;;1.98;76.72;94317.31;5110297;28;20019;-70
2022/11/22 05:01:43;;;;;;;4.88;3.78;;;;;;;1.95;76.78;94317.47;5095837;28;20070;-70
2022/11/22 05:04:08;;;;;;;5.60;3.03;;;;;;;2.02;75.61;94329.03;5073185;28;20035;-69
2022/11/22 05:06:35;;;;;;;4.55;3.33;;;;;;;1.90;76.18;94322.06;5092993;28;20036;-70
2022/11/22 05:09:01;;;;;;;4.78;3.47;;;;;;;1.97;76.49;94326.72;5088959;28;20081;-70
2022/11/22 05:11:26;;;;;;;4.40;3.25;;;;;;;1.96;76.66;94311.44;5104978;28;20051;-70
2022/11/22 05:13:51;;;;;;;4.72;3.30;;;;;;;1.88;76.74;94306.75;5109589;28;20036;-70
2022/11/22 05:16:17;;;;;;;4.03;2.95;;;;;;;1.95;76.30;94302.94;5105316;28;20374;-70
2022/11/22 05:18:42;;;;;;;4.30;3.15;;;;;;;1.88;76.47;94304.19;5095077;28;20038;-70
2022/11/22 05:21:09;;;;;;;4.43;2.83;;;;;;;1.95;76.45;94314.91;5088927;28;20032;-70
2022/11/22 05:23:53;;;;;;;4.18;3.20;;;;;;;1.95;76.28;94310.63;5089377;28;20064;-70
2022/11/22 05:26:19;;;;;;;4.03;3.22;;;;;;;1.90;76.33;94309.25;5091544;28;20027;-70
2022/11/22 05:28:45;;;;;;;4.93;3.70;;;;;;;1.75;76.63;94324.53;5108677;28;20413;-70
2022/11/22 05:31:12;;;;;;;4.97;3.60;;;;;;;1.72;77.03;94323.91;5091306;28;20084;-70
2022/11/22 05:33:39;;;;;;;4.93;2.88;;;;;;;1.78;76.97;94333.78;5091762;28;20036;-70
2022/11/22 05:36:05;;;;;;;3.85;2.92;;;;;;;1.75;76.57;94309.19;5086514;28;20394;-70
2022/11/22 05:38:30;;;;;;;4.60;3.40;;;;;;;1.77;77.02;94327.84;5093692;28;20032;-70
2022/11/22 05:40:56;;;;;;;3.72;3.00;;;;;;;1.40;77.86;94259.97;5090698;28;20028;-70
2022/11/22 05:43:21;;;;;;;3.88;3.00;;;;;;;1.65;78.10;94320.06;5099021;28;20031;-70
2022/11/22 05:45:47;;;;;;;4.72;3.45;;;;;;;1.65;77.45;94292.69;5111546;28;20487;-70
2022/11/22 05:48:12;;;;;;;3.83;2.83;;;;;;;1.83;77.73;94331.81;5102319;28;20028;-69
2022/11/22 05:50:38;;;;;;;5.13;3.08;;;;;;;1.72;77.38;94309.34;5094170;28;20086;-70
2022/11/22 05:53:03;;;;;;;4.05;2.92;;;;;;;1.81;77.17;94337.91;5108876;28;20031;-70
2022/11/22 05:55:29;;;;;;;4.95;3.60;;;;;;;1.72;77.41;94321.34;5106443;28;20043;-70
2022/11/22 05:57:58;;;;;;;5.13;4.63;;;;;;;1.73;77.48;94325.56;5089594;28;20031;-71
2022/11/22 06:00:23;;;;;;;4.78;3.25;;;;;;;1.65;77.26;94328.56;5093556;28;20035;-70
2022/11/22 06:02:49;;;;;;;15.75;7.75;;;;;;;1.71;76.98;94335.06;5096187;28;20032;-70
2022/11/22 06:05:14;;;;;;;15.85;8.95;;;;;;;1.67;77.62;94336.97;5103202;28;20492;-70
2022/11/22 06:07:39;;;;;;;12.60;8.98;;;;;;;1.72;77.09;94340.09;5101303;28;20024;-70
2022/11/22 06:10:05;;;;;;;15.18;10.02;;;;;;;1.76;77.36;94344.16;5102855;28;20023;-70
2022/11/22 06:12:31;;;;;;;17.95;11.93;;;;;;;1.88;76.90;94346.94;5097313;28;20052;-71
2022/11/22 06:14:56;;;;;;;13.98;9.43;;;;;;;1.84;77.08;94336.03;5103765;28;20027;-70
2022/11/22 06:17:22;;;;;;;7.78;5.72;;;;;;;1.81;76.54;94327.69;5112145;28;20031;-70
2022/11/22 06:19:47;;;;;;;6.25;4.40;;;;;;;1.84;76.96;94340.31;5104818;28;20462;-70
2022/11/22 06:22:13;;;;;;;5.80;4.18;;;;;;;1.88;76.88;94339.25;5104808;28;20447;-70
2022/11/22 06:24:38;;;;;;;7.90;5.50;;;;;;;1.72;76.64;94339.25;5086252;28;20463;-70
2022/11/22 06:27:03;;;;;;;8.00;5.50;;;;;;;1.63;77.21;94339.78;5104098;28;20383;-70
2022/11/22 06:29:29;;;;;;;14.77;9.10;;;;;;;1.65;76.72;94349.03;5093910;28;20058;-70
2022/11/22 06:31:54;;;;;;;23.15;14.68;;;;;;;1.61;76.61;94339.03;5097403;28;20035;-70
2022/11/22 06:34:20;;;;;;;30.17;19.40;;;;;;;1.67;77.09;94357.47;5084934;28;20032;-70
2022/11/22 06:36:45;;;;;;;25.65;15.60;;;;;;;1.70;76.33;94343.63;5112399;28;20029;-70
2022/11/22 06:39:11;;;;;;;20.10;12.90;;;;;;;1.52;77.05;94342.94;5105453;28;20031;-70
2022/11/22 06:41:36;;;;;;;14.15;8.45;;;;;;;1.51;77.77;94341.28;5095860;28;20040;-70
2022/11/22 06:44:06;;;;;;;10.77;6.75;;;;;;;1.52;76.48;94340.38;5112598;28;20516;-70
2022/11/22 06:46:31;;;;;;;6.32;4.78;;;;;;;1.35;77.33;94336.19;5098379;28;20113;-70
2022/11/22 06:48:57;;;;;;;6.82;4.70;;;;;;;1.59;76.42;94362.19;5075232;28;20078;-70
2022/11/22 06:51:24;;;;;;;9.88;5.60;;;;;;;1.50;76.69;94352.44;5081910;28;20023;-70
2022/11/22 06:53:49;;;;;;;21.60;8.68;;;;;;;1.59;77.01;94357.06;5081819;28;20523;-70
2022/11/22 06:56:20;;;;;;;24.15;8.43;;;;;;;1.52;77.07;94348.88;5058902;28;20062;-70
2022/11/22 06:58:46;;;;;;;66.63;20.42;;;;;;;1.43;77.41;94346.81;5103756;28;20043;-70
2022/11/22 07:01:16;;;;;;;40.00;14.82;;;;;;;1.51;77.18;94357.47;5083563;28;20028;-70
2022/11/22 07:03:42;;;;;;;53.47;18.10;;;;;;;1.55;77.82;94361.50;5101829;28;20052;-70
2022/11/22 07:06:08;;;;;;;18.63;8.57;;;;;;;1.71;76.81;94353.81;5103130;28;20414;-70
2022/11/22 07:08:34;;;;;;;102.32;29.75;;;;;;;1.62;76.94;94356.88;5079825;28;20145;-71
2022/11/22 07:11:12;;;;;;;74.20;24.50;;;;;;;1.58;77.64;94354.56;5080860;28;20538;-72
2022/11/22 07:13:38;;;;;;;61.20;23.40;;;;;;;1.62;77.63;94359.44;5083688;28;20106;-72
2022/11/22 07:16:04;;;;;;;34.65;14.43;;;;;;;1.64;77.28;94341.44;5086672;28;20515;-72
2022/11/22 07:18:30;;;;;;;14.90;8.70;;;;;;;1.60;77.97;94361.25;5110416;28;20041;-72
2022/11/22 07:21:02;;;;;;;14.95;8.95;;;;;;;1.83;77.30;94359.16;5110156;28;20028;-72
2022/11/22 07:23:27;;;;;;;44.38;24.70;;;;;;;1.72;77.92;94334.97;5110389;28;20035;-72
2022/11/22 07:25:53;;;;;;;16.63;10.18;;;;;;;1.60;78.47;94340.78;5109963;28;20028;-72
2022/11/22 07:28:18;;;;;;;15.10;9.90;;;;;;;1.81;77.96;94343.88;5110364;28;20024;-72
2022/11/22 07:30:44;;;;;;;8.52;6.00;;;;;;;1.91;78.00;94342.44;5110177;28;20046;-72
2022/11/22 07:33:09;;;;;;;9.25;6.45;;;;;;;2.16;77.41;94347.00;5110065;28;20039;-72
2022/11/22 07:35:35;;;;;;;16.92;9.20;;;;;;;2.93;75.85;94344.25;5111436;28;20473;-72
2022/11/22 07:38:01;;;;;;;16.20;9.57;;;;;;;3.25;74.87;94342.28;5093207;28;20061;-72
2022/11/22 07:40:27;;;;;;;7.05;5.10;;;;;;;3.22;74.91;94325.31;5109572;28;20040;-72
2022/11/22 07:42:52;;;;;;;9.15;6.72;;;;;;;3.38;74.83;94320.06;5110941;28;20047;-72
2022/11/22 07:45:18;;;;;;;8.82;6.07;;;;;;;3.61;73.84;94304.94;5109566;28;20027;-72
2022/11/22 07:47:43;;;;;;;9.93;6.75;;;;;;;3.71;73.90;94306.00;5111472;28;20137;-72
2022/11/22 07:50:09;;;;;;;15.00;9.93;;;;;;;3.73;73.90;94296.44;5112973;28;20027;-72
2022/11/22 07:52:34;;;;;;;20.73;14.40;;;;;;;3.66;73.65;94313.19;5094721;28;20027;-72
2022/11/22 07:55:00;;;;;;;18.67;13.23;;;;;;;3.97;73.53;94323.13;5112787;28;20031;-72
2022/11/22 07:57:25;;;;;;;15.57;10.07;;;;;;;4.00;74.15;94330.63;5111591;28;20511;-72
2022/11/22 07:59:51;;;;;;;26.55;15.57;;;;;;;3.93;74.52;94321.69;5094127;28;20028;-72
2022/11/22 08:02:16;;;;;;;28.23;17.33;;;;;;;4.13;73.64;94330.69;5111464;28;20027;-72
2022/11/22 08:04:41;;;;;;;20.80;14.00;;;;;;;4.20;74.43;94319.06;5112604;28;20040;-72
2022/11/22 08:07:08;;;;;;;20.50;14.23;;;;;;;4.10;74.15;94332.63;5112607;28;20443;-72
2022/11/22 08:09:33;;;;;;;23.17;14.57;;;;;;;4.11;73.53;94322.25;5111383;28;20111;-72
2022/11/22 08:11:59;;;;;;;22.38;14.88;;;;;;;4.12;74.39;94323.88;5111057;28;20561;-72
2022/11/22 08:14:24;;;;;;;16.48;11.10;;;;;;;4.28;74.01;94320.31;5111124;28;20504;-72
2022/11/22 08:16:50;;;;;;;15.80;10.52;;;;;;;4.59;73.06;94304.47;5112371;28;20417;-72
2022/11/22 08:19:16;;;;;;;12.52;9.32;;;;;;;4.66;73.25;94315.19;5110911;28;20030;-72
2022/11/22 08:21:45;;;;;;;12.63;8.43;;;;;;;4.68;71.83;94326.19;5112215;28;20036;-72
2022/11/22 08:24:11;;;;;;;14.82;8.88;;;;;;;4.63;72.41;94320.53;5110839;28;20028;-72
2022/11/22 08:26:36;;;;;;;14.45;9.63;;;;;;;4.72;72.93;94309.63;5094040;28;20031;-72
2022/11/22 08:29:05;;;;;;;13.88;8.98;;;;;;;5.19;71.59;94318.41;5112334;28;20036;-72
2022/11/22 08:31:31;;;;;;;13.48;9.07;;;;;;;5.23;71.64;94319.00;5093983;28;20035;-72
2022/11/22 08:33:56;;;;;;;11.80;8.82;;;;;;;5.36;71.63;94297.44;5110790;28;20115;-72
2022/11/22 08:36:22;;;;;;;13.15;8.88;;;;;;;5.63;70.76;94291.28;5111006;28;20054;-72
2022/11/22 08:38:47;;;;;;;11.63;8.65;;;;;;;5.59;70.28;94284.69;5112089;28;20137;-72
2022/11/22 08:41:13;;;;;;;13.20;8.65;;;;;;;5.50;70.96;94283.59;5110680;28;20031;-72
2022/11/22 08:43:38;;;;;;;13.68;9.40;;;;;;;5.64;70.90;94281.78;5110623;28;20520;-72
2022/11/22 08:46:04;;;;;;;12.95;9.57;;;;;;;5.70;70.85;94281.34;5110771;28;20401;-72
2022/11/22 08:48:32;;;;;;;22.02;13.65;;;;;;;5.63;70.75;94273.25;5093479;28;20127;-72
2022/11/22 08:50:59;;;;;;;17.42;10.70;;;;;;;5.74;70.62;94270.72;5110682;28;20601;-72
2022/11/22 08:53:25;;;;;;;14.93;9.85;;;;;;;5.72;71.43;94261.44;5110467;28;20032;-72
2022/11/22 08:55:50;;;;;;;13.40;8.85;;;;;;;5.75;70.84;94264.59;5076418;28;20105;-72
2022/11/22 08:58:16;;;;;;;12.48;8.85;;;;;;;5.88;70.63;94261.13;5111600;28;20035;-72
2022/11/22 09:00:42;;;;;;;12.95;8.55;;;;;;;5.88;71.37;94259.41;5110456;28;20608;-72
2022/11/22 09:03:07;;;;;;;12.70;8.95;;;;;;;5.94;70.13;94247.84;5111547;28;20062;-72
2022/11/22 09:05:33;;;;;;;11.45;8.45;;;;;;;6.07;69.13;94252.91;5093515;28;20027;-72
2022/11/22 09:07:58;;;;;;;14.60;8.35;;;;;;;6.11;69.21;94259.50;5111488;28;20039;-72
2022/11/22 09:10:24;;;;;;;15.85;10.60;;;;;;;6.11;68.66;94252.56;5110693;28;20470;-72
2022/11/22 09:12:49;;;;;;;14.75;10.27;;;;;;;6.19;69.35;94257.97;5111391;28;20582;-72
2022/11/22 09:15:15;;;;;;;14.18;10.27;;;;;;;6.07;69.30;94240.00;5110184;28;20033;-72
2022/11/22 09:17:41;;;;;;;15.40;9.88;;;;;;;6.17;70.88;94246.13;5110135;28;20470;-72
2022/11/22 09:20:07;;;;;;;14.07;10.23;;;;;;;6.02;70.26;94214.59;5110015;28;20490;-72
2022/11/22 09:22:33;;;;;;;13.55;10.10;;;;;;;6.21;69.95;94243.22;5110136;28;20095;-72
2022/11/22 09:24:58;;;;;;;13.77;9.68;;;;;;;6.12;69.33;94243.06;5110000;28;20055;-72
2022/11/22 09:27:24;;;;;;;14.55;10.23;;;;;;;6.17;69.82;94248.72;5093111;28;20050;-72
2022/11/22 09:29:49;;;;;;;13.07;8.68;;;;;;;6.21;69.56;94240.63;5110106;28;20032;-72
2022/11/22 09:32:15;;;;;;;13.52;10.35;;;;;;;6.21;69.46;94238.06;5111259;28;20485;-72
2022/11/22 09:34:40;;;;;;;17.20;12.23;;;;;;;6.31;69.15;94239.94;5109947;28;20016;-72
2022/11/22 09:37:06;;;;;;;15.88;11.77;;;;;;;6.28;69.09;94238.41;5109978;28;20039;-72
2022/11/22 09:39:31;;;;;;;13.18;10.57;;;;;;;6.10;69.57;94238.03;5109792;28;20066;-72
2022/11/22 09:42:10;;;;;;;13.13;9.23;;;;;;;6.07;69.52;94248.56;5109892;28;20543;-72
2022/11/22 09:45:09;;;;;;;12.18;8.95;;;;;;;6.20;68.92;94231.25;5109848;28;20023;-72
2022/11/22 09:47:43;;;;;;;11.95;8.65;;;;;;;6.29;69.42;94228.91;5109919;28;20039;-72
2022/11/22 09:50:34;;;;;;;15.35;10.32;;;;;;;6.22;69.64;94216.47;5093342;28;20040;-72
2022/11/22 09:53:07;;;;;;;14.07;9.93;;;;;;;6.25;70.39;94226.56;5111035;28;20031;-72
2022/11/22 09:55:38;;;;;;;15.25;11.13;;;;;;;6.26;71.05;94212.72;5093496;28;20059;-72
2022/11/22 09:58:13;;;;;;;13.02;9.70;;;;;;;6.18;70.87;94217.63;5076108;28;20081;-72
2022/11/22 10:00:39;;;;;;;13.10;9.50;;;;;;;6.23;70.27;94212.13;5109871;28;20035;-72
2022/11/22 10:03:25;;;;;;;12.38;9.80;;;;;;;6.38;71.49;94217.88;5075782;28;20040;-72
2022/11/22 10:05:58;;;;;;;13.02;10.43;;;;;;;6.37;70.77;94193.03;5109836;28;20110;-72
2022/11/22 10:08:38;;;;;;;14.55;10.38;;;;;;;6.41;71.34;94207.38;5109632;28;20035;-72
2022/11/22 10:11:34;;;;;;;12.77;8.52;;;;;;;6.50;69.96;94204.06;5109616;28;20044;-72
2022/11/22 10:14:19;;;;;;;10.15;7.45;;;;;;;6.59;68.95;94192.22;5109588;28;20040;-72
2022/11/22 10:17:10;;;;;;;12.45;7.97;;;;;;;6.65;68.92;94187.41;5109586;28;20031;-72
2022/11/22 10:19:44;;;;;;;12.48;7.88;;;;;;;6.58;68.95;94177.69;5078390;28;20481;-72
2022/11/22 10:22:11;;;;;;;11.85;7.93;;;;;;;6.45;69.92;94170.88;5109672;28;20063;-73
2022/11/22 10:24:36;;;;;;;13.40;7.70;;;;;;;6.55;69.65;94173.59;5113285;28;20421;-72
2022/11/22 10:27:02;;;;;;;11.63;8.82;;;;;;;6.61;68.86;94165.34;5114563;28;20039;-72
2022/11/22 10:29:38;;;;;;;12.63;8.07;;;;;;;6.61;68.39;94155.03;5113256;28;20436;-72
2022/11/22 10:32:39;;;;;;;11.90;8.90;;;;;;;6.66;69.89;94168.41;5096805;28;20485;-72
2022/11/22 10:35:23;;;;;;;12.10;8.77;;;;;;;6.63;70.84;94158.31;5054555;28;20123;-72
2022/11/22 10:38:13;;;;;;;11.15;8.40;;;;;;;6.69;70.28;94146.69;5107886;28;20043;-72
2022/11/22 10:40:57;;;;;;;11.88;9.00;;;;;;;6.80;70.45;94146.69;5113300;28;20035;-72
2022/11/22 10:43:25;;;;;;;21.83;11.82;;;;;;;6.82;70.26;94146.53;5114148;28;20036;-72
2022/11/22 10:46:08;;;;;;;39.38;19.88;;;;;;;6.90;70.34;94150.16;5113120;28;20032;-72
2022/11/22 10:48:51;;;;;;;39.75;21.15;;;;;;;6.94;70.34;94143.00;5113187;28;20032;-72
2022/11/22 10:51:24;;;;;;;31.58;19.13;;;;;;;6.93;70.23;94139.59;5113160;28;20019;-72
2022/11/22 10:54:15;;;;;;;33.38;18.88;;;;;;;7.00;70.28;94124.44;5096374;28;20040;-72
2022/11/22 10:56:42;;;;;;;;;;;;;;;7.03;70.02;94119.03;5113547;28;20382;-72
2022/11/22 10:59:30;;;;;;;47.83;25.45;;;;;;;6.92;70.65;94125.03;5112615;28;20389;-72
2022/11/22 11:02:15;;;;;;;27.15;15.60;;;;;;;6.92;70.56;94122.47;5112536;28;20054;-72
2022/11/22 11:04:40;;;;;;;47.65;28.17;;;;;;;7.01;69.53;94120.09;5113812;28;20035;-72
2022/11/22 11:07:10;;;;;;;29.70;18.45;;;;;;;7.07;69.89;94119.59;5078652;28;20023;-72
2022/11/22 11:09:43;;;;;;;19.90;14.32;;;;;;;6.97;70.38;94118.72;5095718;28;20077;-72
2022/11/22 11:12:17;;;;;;;16.88;11.60;;;;;;;6.94;69.25;94089.59;5079521;28;20043;-72
2022/11/22 11:15:03;;;;;;;18.13;12.60;;;;;;;6.99;69.55;94115.03;5112383;28;20038;-72
2022/11/22 11:17:30;;;;;;;17.33;13.27;;;;;;;7.02;69.33;94130.31;5112786;28;20069;-72
2022/11/22 11:19:58;;;;;;;18.42;13.35;;;;;;;7.06;69.18;94126.53;5112192;28;20595;-72
2022/11/22 11:22:24;;;;;;;16.00;11.02;;;;;;;6.97;68.77;94127.28;5095553;28;20686;-72
2022/11/22 11:24:49;;;;;;;15.40;10.75;;;;;;;7.03;69.71;94137.09;5078210;28;20027;-72
2022/11/22 11:27:16;;;;;;;15.30;10.93;;;;;;;7.01;70.38;94117.50;5112206;28;20085;-72
2022/11/22 11:29:45;;;;;;;13.70;9.55;;;;;;;7.02;69.96;94127.72;5095120;28;20042;-72
2022/11/22 11:32:20;;;;;;;12.63;9.45;;;;;;;7.07;70.70;94125.56;5112084;28;20028;-72
2022/11/22 11:34:57;;;;;;;13.20;9.27;;;;;;;7.10;70.74;94117.63;5111550;28;20115;-72
2022/11/22 11:37:33;;;;;;;11.13;7.90;;;;;;;7.05;69.49;94111.16;5094860;28;20035;-72
2022/11/22 11:39:58;;;;;;;10.48;8.02;;;;;;;7.02;69.13;94096.75;5111798;28;20107;-72
2022/11/22 11:42:33;;;;;;;10.73;8.18;;;;;;;7.04;68.83;94102.59;5112120;28;20115;-72
2022/11/22 11:45:23;;;;;;;13.23;7.80;;;;;;;7.03;69.13;94108.69;5094768;28;20024;-72
2022/11/22 11:47:48;;;;;;;10.80;8.13;;;;;;;6.92;70.22;94090.66;5112986;28;20034;-72
2022/11/22 11:50:22;;;;;;;10.30;7.38;;;;;;;6.97;69.89;94093.69;5111655;28;20031;-72
2022/11/22 11:53:14;;;;;;;11.10;7.63;;;;;;;6.86;69.07;94055.00;5095225;28;20024;-72
2022/11/22 11:55:40;;;;;;;11.30;7.97;;;;;;;6.98;69.62;94085.00;5096021;28;20031;-72